sensor_id;sensor_type;location;lat;lon;timestamp;temperature;humidity
53800;DHT22;39708;53.210;6.948;2022-11-20T14:32:55;2.40;99.90
53800;DHT22;39708;53.210;6.948;2022-11-20T14:35:25;2.00;99.90
53800;DHT22;39708;53.210;6.948;2022-11-20T14:37:52;1.90;99.90
53800;DHT22;39708;53.210;6.948;2022-11-20T14:40:32;1.90;99.90
53800;DHT22;39708;53.210;6.948;2022-11-20T14:43:00;1.90;99.90
53800;DHT22;39708;53.210;6.948;2022-11-20T14:45:26;1.90;99.90
53800;DHT22;39708;53.210;6.948;2022-11-20T14:47:55;1.90;99.90
53800;DHT22;39708;53.210;6.948;2022-11-20T14:50:27;1.90;99.90
53800;DHT22;39708;53.210;6.948;2022-11-20T14:52:59;1.80;99.90
53800;DHT22;39708;53.210;6.948;2022-11-20T14:55:33;1.70;99.90
53800;DHT22;39708;53.210;6.948;2022-11-20T14:58:02;1.70;99.90
53800;DHT22;39708;53.210;6.948;2022-11-20T15:00:29;1.70;99.90
53800;DHT22;39708;53.210;6.948;2022-11-20T15:02:55;1.70;99.90
53800;DHT22;39708;53.210;6.948;2022-11-20T15:06:00;1.60;99.90
53800;DHT22;39708;53.210;6.948;2022-11-20T15:08:26;1.50;99.90
53800;DHT22;39708;53.210;6.948;2022-11-20T15:10:53;1.40;99.90
53800;DHT22;39708;53.210;6.948;2022-11-20T15:13:38;1.40;99.90
53800;DHT22;39708;53.210;6.948;2022-11-20T15:16:19;1.20;99.90
53800;DHT22;39708;53.210;6.948;2022-11-20T15:18:45;1.00;99.90
53800;DHT22;39708;53.210;6.948;2022-11-20T15:21:14;0.70;99.90
53800;DHT22;39708;53.210;6.948;2022-11-20T15:23:40;0.40;99.90
53800;DHT22;39708;53.210;6.948;2022-11-20T15:26:11;0.00;99.90
53800;DHT22;39708;53.210;6.948;2022-11-20T15:28:40;-0.40;99.90
53800;DHT22;39708;53.210;6.948;2022-11-20T15:31:06;-0.70;99.90
53800;DHT22;39708;53.210;6.948;2022-11-20T15:33:34;-1.10;99.90
53800;DHT22;39708;53.210;6.948;2022-11-20T15:36:00;-1.40;99.90
53800;DHT22;39708;53.210;6.948;2022-11-20T15:38:26;-1.60;99.90
53800;DHT22;39708;53.210;6.948;2022-11-20T15:40:52;-1.60;99.90
53800;DHT22;39708;53.210;6.948;2022-11-20T15:43:17;-1.60;99.90
53800;DHT22;39708;53.210;6.948;2022-11-20T15:45:51;-1.70;99.90
53800;DHT22;39708;53.210;6.948;2022-11-20T15:50:50;-1.70;99.90
53800;DHT22;39708;53.210;6.948;2022-11-20T15:53:18;-1.60;99.90
53800;DHT22;39708;53.210;6.948;2022-11-20T15:55:43;-1.30;99.90
53800;DHT22;39708;53.210;6.948;2022-11-20T15:58:09;-0.80;99.90
53800;DHT22;39708;53.210;6.948;2022-11-20T16:00:35;-0.60;99.90
53800;DHT22;39708;53.210;6.948;2022-11-20T16:03:00;-0.30;99.90
53800;DHT22;39708;53.210;6.948;2022-11-20T16:05:29;-0.10;99.90
53800;DHT22;39708;53.210;6.948;2022-11-20T16:07:55;0.10;99.90
53800;DHT22;39708;53.210;6.948;2022-11-20T16:10:21;0.30;99.90
53800;DHT22;39708;53.210;6.948;2022-11-20T16:12:47;0.30;99.90
53800;DHT22;39708;53.210;6.948;2022-11-20T16:15:31;0.30;99.90
53800;DHT22;39708;53.210;6.948;2022-11-20T16:18:22;0.20;99.90
53800;DHT22;39708;53.210;6.948;2022-11-20T16:20:52;0.20;99.90
53800;DHT22;39708;53.210;6.948;2022-11-20T16:23:19;0.30;99.90
53800;DHT22;39708;53.210;6.948;2022-11-20T16:25:45;0.30;99.90
53800;DHT22;39708;53.210;6.948;2022-11-20T16:28:11;0.40;99.90
53800;DHT22;39708;53.210;6.948;2022-11-20T16:30:37;0.50;99.90
53800;DHT22;39708;53.210;6.948;2022-11-20T16:33:03;0.50;99.90
53800;DHT22;39708;53.210;6.948;2022-11-20T16:35:30;0.60;99.90
53800;DHT22;39708;53.210;6.948;2022-11-20T16:37:57;0.60;99.90
53800;DHT22;39708;53.210;6.948;2022-11-20T16:40:23;0.60;99.90
53800;DHT22;39708;53.210;6.948;2022-11-20T16:42:49;0.60;99.90
53800;DHT22;39708;53.210;6.948;2022-11-20T16:45:15;0.40;99.90
53800;DHT22;39708;53.210;6.948;2022-11-20T16:47:41;0.30;99.90
53800;DHT22;39708;53.210;6.948;2022-11-20T16:50:07;0.40;99.90
53800;DHT22;39708;53.210;6.948;2022-11-20T16:52:33;0.50;99.90
53800;DHT22;39708;53.210;6.948;2022-11-20T16:54:59;0.50;99.90
53800;DHT22;39708;53.210;6.948;2022-11-20T16:57:27;0.60;99.90
53800;DHT22;39708;53.210;6.948;2022-11-20T16:59:53;0.60;99.90
53800;DHT22;39708;53.210;6.948;2022-11-20T17:02:18;0.60;99.90
53800;DHT22;39708;53.210;6.948;2022-11-20T17:04:44;0.70;99.90
53800;DHT22;39708;53.210;6.948;2022-11-20T17:07:09;0.70;99.90
53800;DHT22;39708;53.210;6.948;2022-11-20T17:09:37;0.70;99.90
53800;DHT22;39708;53.210;6.948;2022-11-20T17:12:03;0.70;99.90
53800;DHT22;39708;53.210;6.948;2022-11-20T17:14:28;0.70;99.90
53800;DHT22;39708;53.210;6.948;2022-11-20T17:16:54;0.90;99.90
53800;DHT22;39708;53.210;6.948;2022-11-20T17:19:19;0.70;99.90
53800;DHT22;39708;53.210;6.948;2022-11-20T17:21:45;0.70;99.90
53800;DHT22;39708;53.210;6.948;2022-11-20T17:24:12;0.60;99.90
53800;DHT22;39708;53.210;6.948;2022-11-20T17:26:39;0.40;99.90
53800;DHT22;39708;53.210;6.948;2022-11-20T17:31:35;0.10;99.90
53800;DHT22;39708;53.210;6.948;2022-11-20T17:34:04;-0.20;99.90
53800;DHT22;39708;53.210;6.948;2022-11-20T17:36:31;-0.40;99.90
53800;DHT22;39708;53.210;6.948;2022-11-20T17:38:57;-0.20;99.90
53800;DHT22;39708;53.210;6.948;2022-11-20T17:41:27;-0.20;99.90
53800;DHT22;39708;53.210;6.948;2022-11-20T17:43:54;0.00;99.90
53800;DHT22;39708;53.210;6.948;2022-11-20T17:46:22;0.20;99.90
53800;DHT22;39708;53.210;6.948;2022-11-20T17:48:49;0.20;99.90
53800;DHT22;39708;53.210;6.948;2022-11-20T17:51:20;0.20;99.90
53800;DHT22;39708;53.210;6.948;2022-11-20T17:53:49;0.20;99.90
53800;DHT22;39708;53.210;6.948;2022-11-20T17:56:15;0.30;99.90
53800;DHT22;39708;53.210;6.948;2022-11-20T17:59:03;0.30;99.90
53800;DHT22;39708;53.210;6.948;2022-11-20T18:01:29;0.10;99.90
53800;DHT22;39708;53.210;6.948;2022-11-20T18:03:56;-0.20;99.90
53800;DHT22;39708;53.210;6.948;2022-11-20T18:06:23;-0.50;99.90
53800;DHT22;39708;53.210;6.948;2022-11-20T18:08:50;-0.70;99.90
53800;DHT22;39708;53.210;6.948;2022-11-20T18:11:18;-0.30;99.90
53800;DHT22;39708;53.210;6.948;2022-11-20T18:13:47;-0.20;99.90
53800;DHT22;39708;53.210;6.948;2022-11-20T18:16:34;-0.10;99.90
53800;DHT22;39708;53.210;6.948;2022-11-20T18:19:00;-0.50;99.90
53800;DHT22;39708;53.210;6.948;2022-11-20T18:21:27;-0.60;99.90
53800;DHT22;39708;53.210;6.948;2022-11-20T18:23:56;-0.70;99.90
53800;DHT22;39708;53.210;6.948;2022-11-20T18:26:23;-0.40;99.90
53800;DHT22;39708;53.210;6.948;2022-11-20T18:28:49;-0.20;99.90
53800;DHT22;39708;53.210;6.948;2022-11-20T18:31:15;0.00;99.90
53800;DHT22;39708;53.210;6.948;2022-11-20T18:33:41;0.30;99.90
53800;DHT22;39708;53.210;6.948;2022-11-20T18:36:24;0.40;99.90
53800;DHT22;39708;53.210;6.948;2022-11-20T18:38:52;0.50;99.90
53800;DHT22;39708;53.210;6.948;2022-11-20T18:41:19;0.50;99.90
53800;DHT22;39708;53.210;6.948;2022-11-20T18:44:06;0.50;99.90
53800;DHT22;39708;53.210;6.948;2022-11-20T18:46:54;0.60;99.90
53800;DHT22;39708;53.210;6.948;2022-11-20T18:49:19;0.60;99.90
53800;DHT22;39708;53.210;6.948;2022-11-20T18:51:45;0.60;99.90
53800;DHT22;39708;53.210;6.948;2022-11-20T18:54:12;0.50;99.90
53800;DHT22;39708;53.210;6.948;2022-11-20T18:56:37;0.50;99.90
53800;DHT22;39708;53.210;6.948;2022-11-20T18:59:05;0.50;99.90
53800;DHT22;39708;53.210;6.948;2022-11-20T19:01:32;0.40;99.90
53800;DHT22;39708;53.210;6.948;2022-11-20T19:03:58;0.50;99.90
53800;DHT22;39708;53.210;6.948;2022-11-20T19:06:24;1.10;99.90
53800;DHT22;39708;53.210;6.948;2022-11-20T19:08:50;0.40;99.90
53800;DHT22;39708;53.210;6.948;2022-11-20T19:11:16;0.40;99.90
53800;DHT22;39708;53.210;6.948;2022-11-20T19:13:41;0.30;99.90
53800;DHT22;39708;53.210;6.948;2022-11-20T19:16:12;0.30;99.90
53800;DHT22;39708;53.210;6.948;2022-11-20T19:18:39;0.30;99.90
53800;DHT22;39708;53.210;6.948;2022-11-20T19:21:16;0.60;99.90
53800;DHT22;39708;53.210;6.948;2022-11-20T19:23:42;0.30;99.90
53800;DHT22;39708;53.210;6.948;2022-11-20T19:26:08;0.20;99.90
53800;DHT22;39708;53.210;6.948;2022-11-20T19:28:36;0.20;99.90
53800;DHT22;39708;53.210;6.948;2022-11-20T19:31:06;0.20;99.90
53800;DHT22;39708;53.210;6.948;2022-11-20T19:33:33;0.30;99.90
53800;DHT22;39708;53.210;6.948;2022-11-20T19:36:19;0.20;99.90
53800;DHT22;39708;53.210;6.948;2022-11-20T19:38:46;0.20;99.90
53800;DHT22;39708;53.210;6.948;2022-11-20T19:41:14;0.20;99.90
53800;DHT22;39708;53.210;6.948;2022-11-20T19:43:40;0.20;99.90
53800;DHT22;39708;53.210;6.948;2022-11-20T19:46:05;0.20;99.90
53800;DHT22;39708;53.210;6.948;2022-11-20T19:48:32;0.30;99.90
53800;DHT22;39708;53.210;6.948;2022-11-20T19:51:07;0.30;99.90
53800;DHT22;39708;53.210;6.948;2022-11-20T19:53:33;0.30;99.90
53800;DHT22;39708;53.210;6.948;2022-11-20T19:55:59;0.30;99.90
53800;DHT22;39708;53.210;6.948;2022-11-20T19:58:26;0.30;99.90
53800;DHT22;39708;53.210;6.948;2022-11-20T20:00:52;0.30;99.90
53800;DHT22;39708;53.210;6.948;2022-11-20T20:03:18;0.30;99.90
53800;DHT22;39708;53.210;6.948;2022-11-20T20:05:43;0.40;99.90
53800;DHT22;39708;53.210;6.948;2022-11-20T20:08:09;0.40;99.90
53800;DHT22;39708;53.210;6.948;2022-11-20T20:10:35;0.50;99.90
53800;DHT22;39708;53.210;6.948;2022-11-20T20:13:01;0.50;99.90
53800;DHT22;39708;53.210;6.948;2022-11-20T20:15:26;0.40;99.90
53800;DHT22;39708;53.210;6.948;2022-11-20T20:17:52;0.40;99.90
53800;DHT22;39708;53.210;6.948;2022-11-20T20:20:18;0.40;99.90
53800;DHT22;39708;53.210;6.948;2022-11-20T20:22:44;0.40;99.90
53800;DHT22;39708;53.210;6.948;2022-11-20T20:25:09;0.30;99.90
53800;DHT22;39708;53.210;6.948;2022-11-20T20:27:35;0.30;99.90
53800;DHT22;39708;53.210;6.948;2022-11-20T20:30:05;0.30;99.90
53800;DHT22;39708;53.210;6.948;2022-11-20T20:32:32;0.30;99.90
53800;DHT22;39708;53.210;6.948;2022-11-20T20:34:58;0.40;99.90
53800;DHT22;39708;53.210;6.948;2022-11-20T20:37:24;0.40;99.90
53800;DHT22;39708;53.210;6.948;2022-11-20T20:39:49;0.30;99.90
53800;DHT22;39708;53.210;6.948;2022-11-20T20:42:15;0.30;99.90
53800;DHT22;39708;53.210;6.948;2022-11-20T20:44:41;0.30;99.90
53800;DHT22;39708;53.210;6.948;2022-11-20T20:47:32;0.30;99.90
53800;DHT22;39708;53.210;6.948;2022-11-20T20:49:58;0.20;99.90
53800;DHT22;39708;53.210;6.948;2022-11-20T20:52:24;0.20;99.90
53800;DHT22;39708;53.210;6.948;2022-11-20T20:54:53;0.20;99.90
53800;DHT22;39708;53.210;6.948;2022-11-20T20:57:20;0.20;99.90
53800;DHT22;39708;53.210;6.948;2022-11-20T20:59:47;0.80;99.90
53800;DHT22;39708;53.210;6.948;2022-11-20T21:02:13;0.10;99.90
53800;DHT22;39708;53.210;6.948;2022-11-20T21:04:38;0.10;99.90
53800;DHT22;39708;53.210;6.948;2022-11-20T21:07:04;0.10;99.90
53800;DHT22;39708;53.210;6.948;2022-11-20T21:09:30;0.10;99.90
53800;DHT22;39708;53.210;6.948;2022-11-20T21:11:55;0.20;99.90
53800;DHT22;39708;53.210;6.948;2022-11-20T21:14:21;0.20;99.90
53800;DHT22;39708;53.210;6.948;2022-11-20T21:16:46;0.20;99.90
53800;DHT22;39708;53.210;6.948;2022-11-20T21:19:12;0.20;99.90
53800;DHT22;39708;53.210;6.948;2022-11-20T21:21:38;0.10;99.90
53800;DHT22;39708;53.210;6.948;2022-11-20T21:24:22;0.10;99.90
53800;DHT22;39708;53.210;6.948;2022-11-20T21:26:48;0.10;99.90
53800;DHT22;39708;53.210;6.948;2022-11-20T21:29:20;0.10;99.90
53800;DHT22;39708;53.210;6.948;2022-11-20T21:31:46;0.10;99.90
53800;DHT22;39708;53.210;6.948;2022-11-20T21:34:13;0.00;99.90
53800;DHT22;39708;53.210;6.948;2022-11-20T21:36:39;-0.10;99.90
53800;DHT22;39708;53.210;6.948;2022-11-20T21:39:05;-0.10;99.90
53800;DHT22;39708;53.210;6.948;2022-11-20T21:41:31;-0.10;99.90
53800;DHT22;39708;53.210;6.948;2022-11-20T21:43:58;0.00;99.90
53800;DHT22;39708;53.210;6.948;2022-11-20T21:46:24;0.00;99.90
53800;DHT22;39708;53.210;6.948;2022-11-20T21:48:50;0.10;99.90
53800;DHT22;39708;53.210;6.948;2022-11-20T21:51:18;0.10;99.90
53800;DHT22;39708;53.210;6.948;2022-11-20T21:53:46;0.10;99.90
53800;DHT22;39708;53.210;6.948;2022-11-20T21:56:13;0.10;99.90
53800;DHT22;39708;53.210;6.948;2022-11-20T21:58:41;0.20;99.90
53800;DHT22;39708;53.210;6.948;2022-11-20T22:01:10;0.20;99.90
53800;DHT22;39708;53.210;6.948;2022-11-20T22:03:37;0.20;99.90
53800;DHT22;39708;53.210;6.948;2022-11-20T22:06:02;0.60;99.90
53800;DHT22;39708;53.210;6.948;2022-11-20T22:08:28;0.20;99.90
53800;DHT22;39708;53.210;6.948;2022-11-20T22:10:59;0.20;99.90
53800;DHT22;39708;53.210;6.948;2022-11-20T22:13:25;0.20;99.90
53800;DHT22;39708;53.210;6.948;2022-11-20T22:16:10;0.20;99.90
53800;DHT22;39708;53.210;6.948;2022-11-20T22:18:41;0.20;99.90
53800;DHT22;39708;53.210;6.948;2022-11-20T22:21:07;0.00;99.90
53800;DHT22;39708;53.210;6.948;2022-11-20T22:23:33;-0.30;99.90
53800;DHT22;39708;53.210;6.948;2022-11-20T22:26:04;-0.30;99.90
53800;DHT22;39708;53.210;6.948;2022-11-20T22:28:30;-0.50;99.90
53800;DHT22;39708;53.210;6.948;2022-11-20T22:31:00;-0.60;99.90
53800;DHT22;39708;53.210;6.948;2022-11-20T22:33:26;-0.60;99.90
53800;DHT22;39708;53.210;6.948;2022-11-20T22:35:58;-0.40;99.90
53800;DHT22;39708;53.210;6.948;2022-11-20T22:38:24;-0.50;99.90
53800;DHT22;39708;53.210;6.948;2022-11-20T22:40:50;-0.40;99.90
53800;DHT22;39708;53.210;6.948;2022-11-20T22:43:15;-0.60;99.90
53800;DHT22;39708;53.210;6.948;2022-11-20T22:45:41;-0.60;99.90
53800;DHT22;39708;53.210;6.948;2022-11-20T22:48:07;-0.60;99.90
53800;DHT22;39708;53.210;6.948;2022-11-20T22:50:33;-0.60;99.90
53800;DHT22;39708;53.210;6.948;2022-11-20T22:52:58;-0.50;99.90
53800;DHT22;39708;53.210;6.948;2022-11-20T22:55:24;-0.50;99.90
53800;DHT22;39708;53.210;6.948;2022-11-20T22:57:51;-0.50;99.90
53800;DHT22;39708;53.210;6.948;2022-11-20T23:00:17;-0.70;99.90
53800;DHT22;39708;53.210;6.948;2022-11-20T23:02:43;-0.90;99.90
53800;DHT22;39708;53.210;6.948;2022-11-20T23:05:12;-1.00;99.90
53800;DHT22;39708;53.210;6.948;2022-11-20T23:07:38;-1.20;99.90
53800;DHT22;39708;53.210;6.948;2022-11-20T23:10:04;-1.30;99.90
53800;DHT22;39708;53.210;6.948;2022-11-20T23:12:31;-1.50;99.90
53800;DHT22;39708;53.210;6.948;2022-11-20T23:14:58;-1.60;99.90
53800;DHT22;39708;53.210;6.948;2022-11-20T23:17:24;-1.50;99.90
53800;DHT22;39708;53.210;6.948;2022-11-20T23:19:50;-1.30;99.90
53800;DHT22;39708;53.210;6.948;2022-11-20T23:22:16;-1.40;99.90
53800;DHT22;39708;53.210;6.948;2022-11-20T23:24:41;-1.60;99.90
53800;DHT22;39708;53.210;6.948;2022-11-20T23:27:07;-1.80;99.90
53800;DHT22;39708;53.210;6.948;2022-11-20T23:29:32;-1.90;99.90
53800;DHT22;39708;53.210;6.948;2022-11-20T23:31:58;-2.00;99.90
53800;DHT22;39708;53.210;6.948;2022-11-20T23:34:24;-2.20;99.90
53800;DHT22;39708;53.210;6.948;2022-11-20T23:36:49;-2.00;99.90
53800;DHT22;39708;53.210;6.948;2022-11-20T23:39:15;-1.80;99.90
53800;DHT22;39708;53.210;6.948;2022-11-20T23:41:41;-1.00;99.90
53800;DHT22;39708;53.210;6.948;2022-11-20T23:44:07;-1.40;99.90
53800;DHT22;39708;53.210;6.948;2022-11-20T23:46:33;-1.20;99.90
53800;DHT22;39708;53.210;6.948;2022-11-20T23:48:59;-1.10;99.90
53800;DHT22;39708;53.210;6.948;2022-11-20T23:51:25;-1.00;99.90
53800;DHT22;39708;53.210;6.948;2022-11-20T23:53:51;-0.90;99.90
53800;DHT22;39708;53.210;6.948;2022-11-20T23:56:16;-0.80;99.90
53800;DHT22;39708;53.210;6.948;2022-11-20T23:58:42;-0.70;99.90
